Friday, September 21, 2018, 5:51 PM EDT
Back to Local

KMMK, Meriden Markham Municipal Airport

Location: Meriden, CT, United States Lat: 41.517
Local Time: 5:51 PM EDT (21:51 GMT) Lon: -72.833
Time Zone: US/Eastern Elev: 101 ft

Show me the last for .
Show Decoded

2018-09-21 17:34 METAR KMMK 212134Z AUTO 19009G16KT 10SM SCT026 BKN040 OVC060 21/16 A3007 RMK AO2
                 T02060156 =
2018-09-21 17:00 METAR KMMK 212100Z AUTO 18009KT 10SM BKN028 OVC039 21/15 A3008 RMK AO2 T02060150
                 =
2018-09-21 16:53 METAR KMMK 212053Z AUTO 18010KT 10SM SCT026 SCT031 OVC039 21/15 A3009 RMK AO2
                 SLP187 T02060150 57024 =
2018-09-21 16:45 METAR KMMK 212045Z AUTO 18010G18KT 10SM SCT028 OVC039 21/15 A3009 RMK AO2
                 T02060150 =
2018-09-21 16:36 METAR KMMK 212036Z AUTO 18010G18KT 10SM BKN028 OVC040 21/15 A3009 RMK AO2
                 T02110150 =
2018-09-21 16:18 METAR KMMK 212018Z AUTO 17009G21KT 10SM BKN030 OVC038 21/15 A3010 RMK AO2
                 T02060150 =
2018-09-21 15:53 METAR KMMK 211953Z AUTO 17012G17KT 10SM BKN029 BKN034 OVC040 21/14 A3011 RMK AO2
                 SLP195 T02110144 =
2018-09-21 15:40 METAR KMMK 211940Z AUTO 17010G18KT 10SM BKN029 OVC042 21/14 A3012 RMK AO2
                 T02060144 =
2018-09-21 14:53 METAR KMMK 211853Z AUTO 17013G18KT 10SM SCT030 OVC043 21/14 A3014 RMK AO2 SLP203
                 T02060139 =
2018-09-21 14:16 METAR KMMK 211816Z AUTO 19011G20KT 10SM SCT029 OVC044 21/14 A3015 RMK AO2
                 T02110139 =
2018-09-21 13:53 METAR KMMK 211753Z AUTO 18012G17KT 10SM BKN028 OVC043 22/14 A3016 RMK AO2 SLP211
                 T02170139 10222 20172 58019 =
2018-09-21 13:45 METAR KMMK 211745Z AUTO 18011KT 10SM BKN029 OVC043 22/14 A3016 RMK AO2 T02170139
                 =
2018-09-21 12:53 METAR KMMK 211653Z AUTO 18010KT 10SM SCT027 BKN035 OVC043 21/14 A3019 RMK AO2
                 SLP222 T02060144 =
2018-09-21 12:03 METAR KMMK 211603Z AUTO 17011G17KT 10SM SCT026 OVC043 21/14 A3020 RMK AO2
                 T02060144 =
2018-09-21 11:53 METAR KMMK 211553Z AUTO 16008G15KT 10SM BKN026 BKN032 OVC044 20/14 A3021 RMK AO2
                 SLP229 T02000144 =
2018-09-21 11:48 METAR KMMK 211548Z AUTO 17006KT 10SM BKN026 BKN032 OVC044 20/14 A3021 RMK AO2 =
2018-09-21 10:53 METAR KMMK 211453Z AUTO 17010KT 10SM SCT027 SCT034 OVC042 20/14 A3024 RMK AO2
                 SLP237 T02000139 58013 =
2018-09-21 09:53 METAR KMMK 211353Z AUTO 14008G15KT 10SM FEW021 OVC044 21/15 A3024 RMK AO2 SLP240
                 T02060150 =
2018-09-21 09:46 METAR KMMK 211346Z AUTO 15009KT 10SM FEW020 SCT024 OVC044 19/15 A3025 RMK AO2
                 T01940150 =
2018-09-21 09:31 METAR KMMK 211331Z AUTO 15007G14KT 10SM FEW018 BKN022 OVC043 20/15 A3026 RMK AO2
                 T02000150 =
2018-09-21 08:53 METAR KMMK 211253Z AUTO 15006KT 10SM FEW020 BKN047 OVC065 19/15 A3027 RMK AO2
                 SLP249 T01890150 =
2018-09-21 08:39 METAR KMMK 211239Z AUTO 17006KT 10SM BKN022 BKN036 OVC047 18/15 A3028 RMK AO2
                 T01830150 =
2018-09-21 08:10 METAR KMMK 211210Z AUTO 16005KT 10SM SCT020 OVC033 18/15 A3027 RMK AO2 T01780150
                 =
2018-09-21 07:53 METAR KMMK 211153Z AUTO 16004KT 10SM BKN020 OVC029 17/15 A3027 RMK AO2 RAB08E17
                 SLP250 P0000 60000 T01720150 10172 20167 51005 =
2018-09-21 06:53 METAR KMMK 211053Z AUTO 00000KT 10SM SCT022 OVC028 17/16 A3027 RMK AO2 SLP250
                 T01720156 =
2018-09-21 05:53 METAR KMMK 210953Z AUTO 00000KT 10SM BKN020 OVC027 17/16 A3027 RMK AO2 SLP250
                 T01720156 =
2018-09-21 04:53 METAR KMMK 210853Z AUTO 00000KT 10SM BKN018 OVC050 17/15 A3026 RMK AO2 SLP245
                 T01720150 55002 =
2018-09-21 03:53 METAR KMMK 210753Z AUTO 12004KT 10SM OVC050 17/15 A3025 RMK AO2 SLP243 T01670150
                 =
2018-09-21 03:01 METAR KMMK 210701Z AUTO 00000KT 10SM SCT030 OVC055 17/14 A3026 RMK AO2 T01670144
                 =
2018-09-21 02:53 METAR KMMK 210653Z AUTO 00000KT 10SM BKN028 OVC055 17/14 A3026 RMK AO2 SLP247
                 T01670144 =
2018-09-21 02:16 METAR KMMK 210616Z AUTO 00000KT 10SM FEW021 BKN027 OVC055 17/14 A3027 RMK AO2
                 T01720144 =
2018-09-21 01:53 METAR KMMK 210553Z AUTO 00000KT 10SM OVC055 17/14 A3027 RMK AO2 SLP247 T01720144
                 10189 20172 58003 =
2018-09-21 01:27 METAR KMMK 210527Z AUTO 15004KT 10SM FEW021 OVC060 17/14 A3027 RMK AO2 T01720144
                 =
2018-09-21 00:53 METAR KMMK 210453Z AUTO 14003KT 10SM BKN023 BKN032 OVC050 17/14 A3028 RMK AO2
                 SLP252 T01720144 402330161 =
2018-09-20 23:53 METAR KMMK 210353Z AUTO 12005KT 10SM BKN015 OVC020 17/14 A3028 RMK AO2 SLP253
                 T01720144 =
2018-09-20 23:31 METAR KMMK 210331Z AUTO 13003KT 10SM BKN017 BKN022 OVC030 18/14 A3028 RMK AO2
                 T01780144 =
2018-09-20 23:03 METAR KMMK 210303Z AUTO 16004KT 10SM BKN030 OVC055 18/14 A3028 RMK AO2 T01780144
                 =
2018-09-20 22:53 METAR KMMK 210253Z AUTO 00000KT 10SM BKN029 OVC055 18/14 A3027 RMK AO2 SLP250
                 T01780144 51010 =
2018-09-20 22:06 METAR KMMK 210206Z AUTO 15006KT 10SM BKN027 OVC050 18/14 A3028 RMK AO2 T01780144
                 =
2018-09-20 21:53 METAR KMMK 210153Z AUTO 16007KT 10SM FEW027 OVC050 18/14 A3027 RMK AO2 SLP250
                 T01830144 =
2018-09-20 20:53 METAR KMMK 210053Z AUTO 00000KT 10SM OVC050 18/14 A3027 RMK AO2 SLP247 T01830144
                 =
2018-09-20 19:53 METAR KMMK 202353Z AUTO 14003KT 10SM OVC034 19/15 A3024 RMK AO2 SLP240 T01890150
                 10233 20189 51010 =
2018-09-20 18:53 METAR KMMK 202253Z AUTO 17005KT 10SM FEW034 OVC050 19/14 A3024 RMK AO2 SLP237
                 T01940144 =
2018-09-20 17:53 METAR KMMK 202153Z AUTO 20005KT 10SM BKN045 OVC050 21/15 A3023 RMK AO2 SLP235
                 T02060150 =

Support USWX by starting your Amazon purchase here.